createdAt,value
2022-12-19T00:00:32.131Z,19.00
2022-12-19T00:01:38.731Z,20.44
2022-12-19T00:02:45.237Z,23.53
2022-12-19T00:03:56.609Z,25.20
2022-12-19T00:05:00.556Z,24.00
2022-12-19T00:06:05.374Z,20.81
2022-12-19T00:07:09.296Z,24.87
2022-12-19T00:08:18.026Z,14.69
2022-12-19T00:09:22.224Z,20.40
2022-12-19T00:10:26.190Z,23.25
2022-12-19T00:11:30.864Z,20.94
2022-12-19T00:12:36.855Z,24.20
2022-12-19T00:13:42.123Z,18.87
2022-12-19T00:14:49.681Z,22.81
2022-12-19T00:16:01.102Z,15.88
2022-12-19T00:17:36.989Z,21.37
2022-12-19T00:18:12.357Z,20.50
2022-12-19T00:19:17.866Z,19.40
2022-12-19T00:20:21.867Z,21.87
2022-12-19T00:21:29.858Z,19.12
2022-12-19T00:22:33.843Z,20.19
2022-12-19T00:23:41.154Z,23.69
2022-12-19T00:24:45.099Z,19.40
2022-12-19T00:25:49.219Z,21.75
2022-12-19T00:26:55.997Z,19.69
2022-12-19T00:28:03.488Z,15.00
2022-12-19T00:29:13.853Z,20.94
2022-12-19T00:30:17.594Z,17.06
2022-12-19T00:31:26.327Z,20.19
2022-12-19T00:32:35.102Z,17.50
2022-12-19T00:33:37.507Z,17.33
2022-12-19T00:34:46.092Z,17.44
2022-12-19T00:35:51.633Z,17.44
2022-12-19T00:36:55.673Z,20.37
2022-12-19T00:37:59.583Z,18.75
2022-12-19T00:39:08.785Z,17.87
2022-12-19T00:40:13.319Z,19.87
2022-12-19T00:41:20.215Z,16.31
2022-12-19T00:42:28.043Z,14.75
2022-12-19T00:43:33.730Z,19.69
2022-12-19T00:44:37.662Z,17.50
2022-12-19T00:45:41.702Z,21.81
2022-12-19T00:46:52.781Z,18.20
2022-12-19T00:47:53.920Z,16.94
2022-12-19T00:48:58.807Z,17.12
2022-12-19T00:50:03.339Z,18.25
2022-12-19T00:51:10.567Z,16.19
2022-12-19T00:52:17.101Z,18.31
2022-12-19T00:53:20.215Z,15.94
2022-12-19T00:54:24.708Z,17.40
2022-12-19T00:55:28.788Z,16.69
2022-12-19T00:56:37.232Z,15.06
2022-12-19T00:57:40.146Z,19.94
2022-12-19T00:58:47.394Z,17.94
2022-12-19T00:59:50.295Z,16.81
2022-12-19T01:00:56.806Z,19.19
2022-12-19T01:02:00.903Z,16.25
2022-12-19T01:03:07.592Z,12.63
2022-12-19T01:04:28.139Z,19.75
2022-12-19T01:05:23.179Z,14.75
2022-12-19T01:06:27.924Z,16.94
2022-12-19T01:08:47.096Z,14.19
2022-12-19T01:09:51.043Z,13.75
2022-12-19T01:14:23.201Z,12.88
2022-12-19T01:15:28.808Z,17.31
2022-12-19T01:16:32.947Z,14.25
2022-12-19T01:17:44.004Z,15.38
2022-12-19T01:18:44.397Z,16.87
2022-12-19T01:19:49.937Z,13.19
2022-12-19T01:20:57.454Z,13.75
2022-12-19T01:22:01.452Z,17.12
2022-12-19T01:23:08.007Z,19.00
2022-12-19T01:24:12.150Z,18.06
2022-12-19T01:25:17.778Z,20.81
2022-12-19T01:26:26.871Z,19.87
2022-12-19T01:27:35.431Z,16.87
2022-12-19T01:28:38.211Z,18.07
2022-12-19T01:29:52.847Z,18.25
2022-12-19T01:30:50.269Z,16.00
2022-12-19T01:31:54.829Z,16.94
2022-12-19T01:32:59.923Z,16.87
2022-12-19T01:34:03.916Z,17.75
2022-12-19T01:35:19.787Z,20.19
2022-12-19T01:36:15.495Z,17.06
2022-12-19T01:38:08.861Z,10.56
2022-12-19T01:38:26.243Z,14.25
2022-12-19T01:39:30.943Z,14.87
2022-12-19T01:40:38.034Z,12.63
2022-12-19T01:41:41.990Z,14.31
2022-12-19T01:42:48.560Z,12.81
2022-12-19T01:44:06.990Z,13.38
2022-12-19T01:45:15.633Z,10.56
2022-12-19T01:46:25.531Z,13.88
2022-12-19T01:47:28.758Z,12.81
2022-12-19T01:48:42.488Z,11.94
2022-12-19T01:49:51.917Z,11.69
2022-12-19T01:51:09.342Z,12.50
2022-12-19T01:52:22.913Z,12.19
2022-12-19T01:53:22.596Z,12.63
2022-12-19T01:54:40.572Z,12.88
2022-12-19T01:55:43.536Z,9.94
2022-12-19T01:56:53.263Z,10.13
2022-12-19T01:58:00.708Z,12.44
2022-12-19T01:59:07.796Z,11.00
2022-12-19T02:00:12.801Z,11.38
2022-12-19T02:01:19.208Z,11.12
2022-12-19T02:02:28.935Z,12.06
2022-12-19T02:03:36.434Z,12.00
2022-12-19T02:04:43.257Z,12.75
2022-12-19T02:06:00.918Z,13.75
2022-12-19T02:24:11.524Z,10.31
2022-12-19T02:25:37.414Z,9.88
2022-12-19T02:27:20.557Z,9.50
2022-12-19T02:28:19.718Z,11.19
2022-12-19T02:47:32.530Z,20.50
2022-12-19T02:48:41.148Z,25.62
2022-12-19T03:55:10.070Z,18.50
2022-12-19T03:59:19.507Z,16.44
2022-12-19T04:00:26.931Z,18.50
2022-12-19T04:01:33.901Z,19.06
2022-12-19T04:02:42.507Z,16.12
2022-12-19T04:03:48.910Z,18.19
2022-12-19T04:05:00.400Z,16.06
2022-12-19T04:06:07.847Z,17.00
2022-12-19T04:07:14.917Z,17.81
2022-12-19T04:08:19.618Z,17.06
2022-12-19T04:09:24.669Z,18.87
2022-12-19T04:10:32.171Z,19.81
2022-12-19T04:11:39.249Z,17.50
2022-12-19T04:12:51.472Z,17.87
2022-12-19T04:14:00.270Z,15.44
2022-12-19T04:15:07.756Z,18.87
2022-12-19T04:16:17.743Z,19.13
2022-12-19T04:17:45.397Z,17.44
2022-12-19T04:18:59.345Z,20.50
2022-12-19T04:20:15.376Z,12.69
2022-12-19T04:21:22.337Z,17.81
2022-12-19T04:22:39.859Z,17.19
2022-12-19T04:24:55.002Z,15.75
2022-12-19T04:25:19.181Z,15.50
2022-12-19T04:26:26.756Z,15.25
2022-12-19T04:27:33.551Z,15.00
2022-12-19T04:28:47.893Z,18.62
2022-12-19T04:29:58.342Z,19.31
2022-12-19T04:31:06.274Z,18.12
2022-12-19T04:32:11.533Z,15.13
2022-12-19T04:33:16.840Z,19.62
2022-12-19T04:34:22.057Z,21.12
2022-12-19T04:35:26.331Z,22.31
2022-12-19T04:36:30.526Z,20.69
2022-12-19T04:37:37.444Z,21.06
2022-12-19T04:38:48.533Z,17.37
2022-12-19T04:39:57.752Z,18.94
2022-12-19T04:40:59.783Z,16.75
2022-12-19T04:42:05.159Z,16.87
2022-12-19T04:43:09.472Z,15.69
2022-12-19T04:44:15.036Z,9.44
2022-12-19T04:45:19.076Z,13.31
2022-12-19T04:46:24.408Z,17.94
2022-12-19T04:47:28.504Z,16.81
2022-12-19T04:48:36.352Z,15.75
2022-12-19T04:49:40.330Z,13.44
2022-12-19T04:50:45.731Z,19.31
2022-12-19T04:51:53.450Z,16.75
2022-12-19T04:52:57.958Z,17.94
2022-12-19T04:54:01.880Z,15.13
2022-12-19T04:55:06.357Z,17.25
2022-12-19T04:56:15.394Z,19.00
2022-12-19T04:57:19.434Z,13.25
2022-12-19T04:58:23.466Z,16.31
2022-12-19T04:59:27.707Z,14.44
2022-12-19T05:00:34.445Z,17.19
2022-12-19T05:01:44.946Z,16.87
2022-12-19T05:02:46.922Z,14.40
2022-12-19T05:03:57.614Z,17.69
2022-12-19T05:06:30.995Z,16.50
2022-12-19T05:07:36.485Z,16.69
2022-12-19T05:08:42.451Z,17.56
2022-12-19T05:09:46.511Z,18.44
2022-12-19T05:10:53.202Z,20.25
2022-12-19T05:11:57.107Z,19.12
2022-12-19T05:13:02.674Z,19.19
2022-12-19T05:14:06.666Z,16.53
2022-12-19T05:15:11.025Z,20.25
2022-12-19T05:16:16.462Z,20.69
2022-12-19T05:18:08.469Z,23.56
2022-12-19T05:18:57.393Z,18.87
2022-12-19T05:20:51.463Z,25.19
2022-12-19T05:21:59.282Z,24.40
2022-12-19T05:23:05.767Z,24.37
2022-12-19T05:56:12.649Z,20.56
2022-12-19T05:58:03.840Z,23.00
2022-12-19T05:59:07.903Z,25.37
2022-12-19T06:00:12.905Z,25.33
2022-12-19T06:00:18.766Z,26.56
2022-12-19T06:01:26.500Z,22.13
2022-12-19T06:02:37.025Z,28.62
2022-12-19T06:03:45.487Z,28.75
2022-12-19T06:04:51.096Z,26.25
2022-12-19T06:05:59.094Z,32.33
2022-12-19T06:07:04.875Z,31.06
2022-12-19T06:08:23.678Z,35.81
2022-12-19T06:09:46.137Z,36.25
2022-12-19T07:28:28.429Z,38.73
2022-12-19T07:38:35.584Z,44.69
2022-12-19T07:56:35.053Z,43.87
2022-12-19T07:57:45.988Z,41.67
2022-12-19T08:15:54.668Z,39.81
2022-12-19T08:22:25.914Z,25.69
2022-12-19T08:22:43.258Z,31.56
2022-12-19T08:23:49.272Z,33.06
2022-12-19T08:24:51.187Z,33.50
2022-12-19T08:26:04.991Z,29.75
2022-12-19T08:27:14.043Z,33.25
2022-12-19T08:28:31.277Z,35.00
2022-12-19T09:16:40.643Z,23.87
2022-12-19T09:17:47.248Z,23.40
2022-12-19T09:18:59.310Z,22.56
2022-12-19T09:20:04.101Z,12.19
2022-12-19T09:21:12.770Z,23.67
2022-12-19T09:22:17.496Z,17.87
2022-12-19T09:23:22.452Z,22.25
2022-12-19T09:24:28.073Z,20.50
2022-12-19T09:25:35.888Z,21.60
2022-12-19T09:26:49.260Z,21.44
2022-12-19T09:30:36.792Z,17.37
2022-12-19T09:31:40.935Z,15.75
2022-12-19T09:32:45.036Z,16.81
2022-12-19T09:33:50.472Z,19.06
2022-12-19T09:34:57.999Z,20.31
2022-12-19T09:36:09.735Z,19.62
2022-12-19T09:37:15.875Z,17.25
2022-12-19T09:38:20.794Z,17.00
2022-12-19T09:39:27.511Z,13.19
2022-12-19T09:41:28.103Z,18.50
2022-12-19T09:42:19.895Z,20.00
2022-12-19T09:43:41.530Z,23.19
2022-12-19T09:44:53.949Z,20.56
2022-12-19T09:46:17.680Z,19.94
2022-12-19T10:03:42.416Z,18.62
2022-12-19T10:07:11.196Z,20.25
2022-12-19T10:07:59.643Z,19.37
2022-12-19T10:09:00.718Z,21.50
2022-12-19T10:12:21.581Z,21.69
2022-12-19T10:12:42.397Z,20.44
2022-12-19T10:12:45.128Z,20.94
2022-12-19T10:13:40.160Z,24.56
2022-12-19T10:15:01.335Z,24.00
2022-12-19T10:16:31.236Z,20.44
2022-12-19T10:18:21.205Z,22.00
2022-12-19T10:20:35.302Z,26.50
2022-12-19T10:20:48.191Z,24.50
2022-12-19T10:22:16.836Z,26.94
2022-12-19T10:22:58.249Z,27.00
2022-12-19T10:24:10.981Z,29.60
2022-12-19T10:25:25.326Z,27.87
2022-12-19T10:26:48.694Z,25.73
2022-12-19T10:28:10.529Z,22.25
2022-12-19T10:29:41.027Z,19.06
2022-12-19T10:30:37.512Z,21.12
2022-12-19T10:32:07.891Z,18.81
2022-12-19T10:33:20.616Z,19.81
2022-12-19T10:34:23.863Z,20.19
2022-12-19T10:35:35.121Z,21.69
2022-12-19T10:37:13.307Z,22.56
2022-12-19T10:38:02.081Z,23.31
2022-12-19T10:39:09.161Z,22.44
2022-12-19T10:40:28.459Z,24.12
2022-12-19T10:42:02.515Z,20.19
2022-12-19T10:43:32.134Z,25.12
2022-12-19T10:47:08.892Z,23.06
2022-12-19T11:02:54.883Z,22.31
2022-12-19T11:04:18.072Z,24.81
2022-12-19T11:05:29.512Z,26.56
2022-12-19T11:12:25.642Z,23.33
2022-12-19T11:24:45.038Z,21.25
2022-12-19T11:29:26.554Z,17.00
2022-12-19T11:29:27.068Z,15.50
2022-12-19T11:29:29.926Z,13.00
2022-12-19T11:29:30.352Z,18.06
2022-12-19T11:30:05.033Z,13.50
2022-12-19T11:30:38.167Z,15.94
2022-12-19T11:30:40.967Z,16.87
2022-12-19T11:30:43.747Z,18.00
2022-12-19T11:30:48.369Z,17.75
2022-12-19T11:32:39.673Z,16.75
2022-12-19T11:33:31.490Z,18.25
2022-12-19T11:34:37.333Z,20.12
2022-12-19T11:35:54.673Z,20.44
2022-12-19T11:37:04.376Z,25.62
2022-12-19T11:38:13.976Z,29.50
2022-12-19T11:39:45.681Z,29.69
2022-12-19T11:56:33.459Z,12.37
2022-12-19T11:57:35.864Z,17.69
2022-12-19T11:58:42.644Z,19.00
2022-12-19T11:59:47.260Z,20.81
2022-12-19T12:00:57.046Z,18.80
2022-12-19T12:02:22.877Z,19.33
2022-12-19T12:04:01.869Z,20.12
2022-12-19T12:05:24.795Z,20.75
2022-12-19T12:06:35.951Z,20.62
2022-12-19T12:09:01.955Z,23.00
2022-12-19T12:09:50.123Z,19.62
2022-12-19T12:15:41.348Z,25.75
2022-12-19T12:18:15.254Z,23.62
2022-12-19T12:19:27.933Z,19.19
2022-12-19T12:22:30.197Z,21.06
2022-12-19T12:24:58.835Z,22.13
2022-12-19T12:25:02.747Z,21.94
2022-12-19T12:31:10.203Z,25.62
2022-12-19T12:31:14.804Z,25.62
2022-12-19T12:31:18.960Z,22.50
2022-12-19T13:20:22.347Z,44.27
2022-12-19T13:21:36.380Z,46.13
2022-12-19T13:22:47.093Z,46.94
2022-12-19T13:23:58.287Z,46.40
2022-12-19T13:25:16.376Z,44.07
2022-12-19T13:26:32.092Z,45.81
2022-12-19T13:27:44.407Z,47.00
2022-12-19T13:34:13.835Z,45.53
2022-12-19T13:39:50.679Z,47.31
2022-12-19T13:39:55.162Z,46.53
2022-12-19T13:40:07.493Z,45.87
2022-12-19T15:14:51.502Z,45.94
2022-12-19T15:15:52.787Z,43.40
2022-12-19T15:17:42.949Z,47.40
2022-12-19T15:18:46.958Z,49.13
2022-12-19T15:19:52.166Z,49.88
2022-12-19T15:21:03.473Z,46.53
2022-12-19T15:22:08.941Z,44.80
2022-12-19T15:23:23.303Z,47.00
2022-12-19T15:24:34.517Z,47.06
2022-12-19T15:57:58.346Z,58.63
2022-12-19T15:59:07.156Z,59.63
2022-12-19T16:00:27.984Z,58.27
2022-12-19T16:01:30.602Z,59.27
2022-12-19T16:03:20.425Z,66.00
2022-12-19T16:03:44.014Z,60.80
2022-12-19T16:04:50.646Z,57.47
2022-12-19T16:05:59.298Z,57.13
2022-12-19T16:07:06.548Z,63.93
2022-12-19T16:08:17.688Z,52.31
2022-12-19T16:26:46.931Z,63.53
2022-12-19T16:42:09.660Z,59.67
2022-12-19T16:45:47.678Z,55.47
2022-12-19T16:46:52.392Z,60.00
2022-12-19T16:47:56.474Z,60.00
2022-12-19T16:49:02.848Z,54.33
2022-12-19T16:50:17.170Z,58.47
2022-12-19T16:52:34.928Z,61.80
2022-12-19T17:13:17.243Z,54.27
2022-12-19T17:52:27.724Z,53.50
2022-12-19T17:53:44.551Z,53.60
2022-12-19T17:54:02.763Z,61.27
2022-12-19T17:55:16.656Z,57.80
2022-12-19T17:56:23.276Z,47.19
2022-12-19T17:57:27.231Z,50.87
2022-12-19T17:58:31.192Z,66.87
2022-12-19T17:59:35.163Z,55.33
2022-12-19T18:20:37.804Z,46.13
2022-12-19T18:21:41.216Z,48.13
2022-12-19T18:22:49.634Z,44.87
2022-12-19T18:23:53.621Z,44.07
2022-12-19T18:25:01.346Z,43.53
2022-12-19T18:26:13.881Z,42.25
2022-12-19T18:27:23.042Z,42.40
2022-12-19T18:28:45.062Z,41.80
2022-12-19T18:30:38.710Z,43.81
2022-12-19T18:31:26.859Z,42.75
2022-12-19T18:32:25.637Z,44.53
2022-12-19T18:35:50.722Z,42.00
2022-12-19T18:50:55.737Z,43.94
2022-12-19T18:52:02.865Z,43.13
2022-12-19T18:53:12.138Z,42.40
2022-12-19T18:54:21.655Z,44.81
2022-12-19T18:55:47.265Z,43.40
2022-12-19T18:56:52.809Z,44.88
2022-12-19T19:02:21.339Z,42.80
2022-12-19T19:02:43.862Z,44.25
2022-12-19T19:03:11.046Z,39.93
2022-12-19T19:39:01.766Z,37.81
2022-12-19T19:40:11.436Z,39.00
2022-12-19T19:41:15.287Z,37.40
2022-12-19T20:06:35.422Z,35.63
2022-12-19T21:29:38.864Z,38.33
2022-12-19T21:30:43.296Z,40.07
2022-12-19T21:31:53.865Z,41.37
2022-12-19T21:33:00.954Z,39.50
2022-12-19T21:34:10.286Z,39.81
2022-12-19T21:37:20.544Z,38.53
2022-12-19T21:39:02.083Z,30.53
2022-12-19T21:40:31.246Z,38.81
2022-12-19T21:41:01.000Z,41.13
2022-12-19T21:41:42.318Z,40.27
2022-12-19T21:42:44.318Z,43.20
2022-12-19T21:45:24.422Z,39.50
2022-12-19T21:46:28.075Z,42.50
2022-12-19T21:47:33.684Z,40.27
2022-12-19T21:48:40.040Z,40.80
2022-12-19T21:49:45.654Z,41.00
2022-12-19T21:50:52.685Z,47.13
2022-12-19T21:51:57.658Z,42.80
2022-12-19T21:53:04.314Z,45.47
2022-12-19T21:55:35.788Z,42.07
2022-12-19T21:56:45.749Z,45.20
2022-12-19T21:57:53.771Z,44.33
2022-12-19T21:59:00.743Z,43.75
2022-12-19T22:00:15.165Z,45.40
2022-12-19T22:01:18.130Z,44.33
2022-12-19T22:02:24.266Z,47.69
2022-12-19T22:03:29.242Z,43.20
2022-12-19T22:04:35.221Z,46.44
2022-12-19T22:05:41.268Z,44.53
2022-12-19T22:06:48.404Z,46.81
2022-12-19T22:08:02.906Z,47.33
2022-12-19T23:28:11.385Z,36.63
2022-12-19T23:29:16.417Z,37.20
2022-12-19T23:30:21.696Z,37.93
2022-12-19T23:31:28.001Z,36.88
2022-12-19T23:32:32.734Z,37.25
2022-12-19T23:33:38.981Z,38.20
2022-12-19T23:34:43.095Z,39.25
2022-12-19T23:35:47.125Z,40.12
2022-12-19T23:38:01.508Z,37.94
2022-12-19T23:39:08.670Z,39.81
2022-12-19T23:40:14.841Z,35.06
2022-12-19T23:44:10.787Z,37.88
2022-12-19T23:45:18.291Z,39.40
2022-12-19T23:46:25.490Z,37.44
2022-12-19T23:47:29.511Z,39.69
2022-12-19T23:48:33.543Z,37.47
2022-12-19T23:49:37.607Z,36.47
2022-12-19T23:50:50.651Z,36.60
2022-12-19T23:51:56.900Z,37.38
2022-12-19T23:53:00.890Z,35.31
